sensor_id;sensor_type;location;lat;lon;timestamp;temperature;humidity
16966;DHT22;8599;47.852;12.070;2023-05-27T00:01:27;16.00;99.90
16966;DHT22;8599;47.852;12.070;2023-05-27T00:03:54;16.00;99.90
16966;DHT22;8599;47.852;12.070;2023-05-27T00:06:20;15.90;99.90
16966;DHT22;8599;47.852;12.070;2023-05-27T00:08:47;15.90;99.90
16966;DHT22;8599;47.852;12.070;2023-05-27T00:11:14;15.80;99.90
16966;DHT22;8599;47.852;12.070;2023-05-27T00:13:42;15.80;99.90
16966;DHT22;8599;47.852;12.070;2023-05-27T00:16:09;15.80;99.90
16966;DHT22;8599;47.852;12.070;2023-05-27T00:18:36;15.80;99.90
16966;DHT22;8599;47.852;12.070;2023-05-27T00:21:03;15.80;99.90
16966;DHT22;8599;47.852;12.070;2023-05-27T00:23:30;15.80;99.90
16966;DHT22;8599;47.852;12.070;2023-05-27T00:25:57;15.80;99.90
16966;DHT22;8599;47.852;12.070;2023-05-27T00:28:24;15.80;99.90
16966;DHT22;8599;47.852;12.070;2023-05-27T00:30:55;15.80;99.90
16966;DHT22;8599;47.852;12.070;2023-05-27T00:33:22;15.70;99.90
16966;DHT22;8599;47.852;12.070;2023-05-27T00:35:49;15.50;99.90
16966;DHT22;8599;47.852;12.070;2023-05-27T00:38:16;15.50;99.90
16966;DHT22;8599;47.852;12.070;2023-05-27T00:40:43;15.50;99.90
16966;DHT22;8599;47.852;12.070;2023-05-27T00:43:10;15.40;99.90
16966;DHT22;8599;47.852;12.070;2023-05-27T00:45:36;15.40;99.90
16966;DHT22;8599;47.852;12.070;2023-05-27T00:48:05;15.40;99.90
16966;DHT22;8599;47.852;12.070;2023-05-27T00:50:32;15.40;99.90
16966;DHT22;8599;47.852;12.070;2023-05-27T00:52:59;15.30;99.90
16966;DHT22;8599;47.852;12.070;2023-05-27T00:55:25;15.20;99.90
16966;DHT22;8599;47.852;12.070;2023-05-27T00:57:52;15.20;99.90
16966;DHT22;8599;47.852;12.070;2023-05-27T01:00:20;15.10;99.90
16966;DHT22;8599;47.852;12.070;2023-05-27T01:02:47;15.10;99.90
16966;DHT22;8599;47.852;12.070;2023-05-27T01:05:16;15.20;99.90
16966;DHT22;8599;47.852;12.070;2023-05-27T01:07:55;15.30;99.90
16966;DHT22;8599;47.852;12.070;2023-05-27T01:10:29;15.40;99.90
16966;DHT22;8599;47.852;12.070;2023-05-27T01:13:00;15.40;99.90
16966;DHT22;8599;47.852;12.070;2023-05-27T01:15:28;15.50;99.90
16966;DHT22;8599;47.852;12.070;2023-05-27T01:18:00;15.50;99.90
16966;DHT22;8599;47.852;12.070;2023-05-27T01:20:30;15.40;99.90
16966;DHT22;8599;47.852;12.070;2023-05-27T01:22:59;15.40;99.90
16966;DHT22;8599;47.852;12.070;2023-05-27T01:25:26;15.20;99.90
16966;DHT22;8599;47.852;12.070;2023-05-27T01:27:54;15.10;99.90
16966;DHT22;8599;47.852;12.070;2023-05-27T01:30:21;15.10;99.90
16966;DHT22;8599;47.852;12.070;2023-05-27T01:32:51;15.10;99.90
16966;DHT22;8599;47.852;12.070;2023-05-27T01:35:24;15.20;99.90
16966;DHT22;8599;47.852;12.070;2023-05-27T01:37:52;15.30;99.90
16966;DHT22;8599;47.852;12.070;2023-05-27T01:40:22;15.40;99.90
16966;DHT22;8599;47.852;12.070;2023-05-27T01:42:50;15.40;99.90
16966;DHT22;8599;47.852;12.070;2023-05-27T01:45:17;15.30;99.90
16966;DHT22;8599;47.852;12.070;2023-05-27T01:47:44;15.30;99.90
16966;DHT22;8599;47.852;12.070;2023-05-27T01:50:11;15.30;99.90
16966;DHT22;8599;47.852;12.070;2023-05-27T01:52:38;15.30;99.90
16966;DHT22;8599;47.852;12.070;2023-05-27T01:55:06;15.20;99.90
16966;DHT22;8599;47.852;12.070;2023-05-27T01:57:34;15.10;99.90
16966;DHT22;8599;47.852;12.070;2023-05-27T02:00:01;15.10;99.90
16966;DHT22;8599;47.852;12.070;2023-05-27T02:02:30;15.00;99.90
16966;DHT22;8599;47.852;12.070;2023-05-27T02:04:57;14.90;99.90
16966;DHT22;8599;47.852;12.070;2023-05-27T02:07:23;14.80;99.90
16966;DHT22;8599;47.852;12.070;2023-05-27T02:09:52;14.70;99.90
16966;DHT22;8599;47.852;12.070;2023-05-27T02:12:19;14.70;99.90
16966;DHT22;8599;47.852;12.070;2023-05-27T02:14:47;14.70;99.90
16966;DHT22;8599;47.852;12.070;2023-05-27T02:17:14;14.70;99.90
16966;DHT22;8599;47.852;12.070;2023-05-27T02:19:42;14.80;99.90
16966;DHT22;8599;47.852;12.070;2023-05-27T02:22:09;14.80;99.90
16966;DHT22;8599;47.852;12.070;2023-05-27T02:24:36;14.70;99.90
16966;DHT22;8599;47.852;12.070;2023-05-27T02:27:03;14.60;99.90
16966;DHT22;8599;47.852;12.070;2023-05-27T02:29:31;14.50;99.90
16966;DHT22;8599;47.852;12.070;2023-05-27T02:31:59;14.40;99.90
16966;DHT22;8599;47.852;12.070;2023-05-27T02:34:26;14.30;99.90
16966;DHT22;8599;47.852;12.070;2023-05-27T02:36:52;14.30;99.90
16966;DHT22;8599;47.852;12.070;2023-05-27T02:39:19;14.20;99.90
16966;DHT22;8599;47.852;12.070;2023-05-27T02:41:46;14.30;99.90
16966;DHT22;8599;47.852;12.070;2023-05-27T02:44:13;14.40;99.90
16966;DHT22;8599;47.852;12.070;2023-05-27T02:46:40;14.20;99.90
16966;DHT22;8599;47.852;12.070;2023-05-27T02:49:08;14.20;99.90
16966;DHT22;8599;47.852;12.070;2023-05-27T02:51:35;14.20;99.90
16966;DHT22;8599;47.852;12.070;2023-05-27T02:54:02;14.30;99.90
16966;DHT22;8599;47.852;12.070;2023-05-27T02:56:29;14.20;99.90
16966;DHT22;8599;47.852;12.070;2023-05-27T02:58:56;14.20;99.90
16966;DHT22;8599;47.852;12.070;2023-05-27T03:01:22;14.20;99.90
16966;DHT22;8599;47.852;12.070;2023-05-27T03:03:49;14.30;99.90
16966;DHT22;8599;47.852;12.070;2023-05-27T03:06:17;14.30;99.90
16966;DHT22;8599;47.852;12.070;2023-05-27T03:08:44;14.30;99.90
16966;DHT22;8599;47.852;12.070;2023-05-27T03:11:11;14.20;99.90
16966;DHT22;8599;47.852;12.070;2023-05-27T03:13:38;14.00;99.90
16966;DHT22;8599;47.852;12.070;2023-05-27T03:16:05;14.00;99.90
16966;DHT22;8599;47.852;12.070;2023-05-27T03:18:32;14.00;99.90
16966;DHT22;8599;47.852;12.070;2023-05-27T03:20:59;14.00;99.90
16966;DHT22;8599;47.852;12.070;2023-05-27T03:23:28;13.90;99.90
16966;DHT22;8599;47.852;12.070;2023-05-27T03:25:54;13.80;99.90
16966;DHT22;8599;47.852;12.070;2023-05-27T03:28:21;13.70;99.90
16966;DHT22;8599;47.852;12.070;2023-05-27T03:30:48;13.60;99.90
16966;DHT22;8599;47.852;12.070;2023-05-27T03:33:15;13.60;99.90
16966;DHT22;8599;47.852;12.070;2023-05-27T03:35:42;13.60;99.90
16966;DHT22;8599;47.852;12.070;2023-05-27T03:38:08;13.60;99.90
16966;DHT22;8599;47.852;12.070;2023-05-27T03:40:36;13.60;99.90
16966;DHT22;8599;47.852;12.070;2023-05-27T03:43:03;13.60;99.90
16966;DHT22;8599;47.852;12.070;2023-05-27T03:45:30;13.50;99.90
16966;DHT22;8599;47.852;12.070;2023-05-27T03:47:57;13.60;99.90
16966;DHT22;8599;47.852;12.070;2023-05-27T03:50:24;13.80;99.90
16966;DHT22;8599;47.852;12.070;2023-05-27T03:52:51;13.90;99.90
16966;DHT22;8599;47.852;12.070;2023-05-27T03:55:17;13.90;99.90
16966;DHT22;8599;47.852;12.070;2023-05-27T03:57:47;14.00;99.90
16966;DHT22;8599;47.852;12.070;2023-05-27T04:00:15;14.10;99.90
16966;DHT22;8599;47.852;12.070;2023-05-27T04:02:42;14.10;99.90
16966;DHT22;8599;47.852;12.070;2023-05-27T04:05:10;14.10;99.90
16966;DHT22;8599;47.852;12.070;2023-05-27T04:07:37;14.10;99.90
16966;DHT22;8599;47.852;12.070;2023-05-27T04:10:05;13.90;99.90
16966;DHT22;8599;47.852;12.070;2023-05-27T04:12:32;13.90;99.90
16966;DHT22;8599;47.852;12.070;2023-05-27T04:15:00;14.00;99.90
16966;DHT22;8599;47.852;12.070;2023-05-27T04:17:27;14.10;99.90
16966;DHT22;8599;47.852;12.070;2023-05-27T04:19:53;14.20;99.90
16966;DHT22;8599;47.852;12.070;2023-05-27T04:22:22;14.20;99.90
16966;DHT22;8599;47.852;12.070;2023-05-27T04:24:48;14.30;99.90
16966;DHT22;8599;47.852;12.070;2023-05-27T04:27:15;14.40;99.90
16966;DHT22;8599;47.852;12.070;2023-05-27T04:29:44;14.50;99.90
16966;DHT22;8599;47.852;12.070;2023-05-27T04:32:12;14.50;99.90
16966;DHT22;8599;47.852;12.070;2023-05-27T04:34:39;14.50;99.90
16966;DHT22;8599;47.852;12.070;2023-05-27T04:37:07;14.60;99.90
16966;DHT22;8599;47.852;12.070;2023-05-27T04:39:35;14.70;99.90
16966;DHT22;8599;47.852;12.070;2023-05-27T04:42:02;14.80;99.90
16966;DHT22;8599;47.852;12.070;2023-05-27T04:44:31;14.90;99.90
16966;DHT22;8599;47.852;12.070;2023-05-27T04:46:57;15.00;99.90
16966;DHT22;8599;47.852;12.070;2023-05-27T04:49:26;15.10;99.90
16966;DHT22;8599;47.852;12.070;2023-05-27T04:51:53;15.20;99.90
16966;DHT22;8599;47.852;12.070;2023-05-27T04:54:20;15.20;99.90
16966;DHT22;8599;47.852;12.070;2023-05-27T04:56:47;15.20;99.90
16966;DHT22;8599;47.852;12.070;2023-05-27T04:59:17;15.10;99.90
16966;DHT22;8599;47.852;12.070;2023-05-27T05:01:47;15.00;99.90
16966;DHT22;8599;47.852;12.070;2023-05-27T05:04:37;15.00;99.90
16966;DHT22;8599;47.852;12.070;2023-05-27T05:07:04;15.20;99.90
16966;DHT22;8599;47.852;12.070;2023-05-27T05:09:31;15.30;99.90
16966;DHT22;8599;47.852;12.070;2023-05-27T05:11:58;15.40;99.90
16966;DHT22;8599;47.852;12.070;2023-05-27T05:14:24;15.50;99.90
16966;DHT22;8599;47.852;12.070;2023-05-27T05:16:51;15.60;99.90
16966;DHT22;8599;47.852;12.070;2023-05-27T05:19:18;15.60;99.90
16966;DHT22;8599;47.852;12.070;2023-05-27T05:21:46;15.70;99.90
16966;DHT22;8599;47.852;12.070;2023-05-27T05:24:13;15.80;99.90
16966;DHT22;8599;47.852;12.070;2023-05-27T05:26:40;15.90;99.90
16966;DHT22;8599;47.852;12.070;2023-05-27T05:29:06;16.00;99.90
16966;DHT22;8599;47.852;12.070;2023-05-27T05:31:34;16.10;99.90
16966;DHT22;8599;47.852;12.070;2023-05-27T05:34:01;16.10;99.90
16966;DHT22;8599;47.852;12.070;2023-05-27T05:36:28;16.10;99.90
16966;DHT22;8599;47.852;12.070;2023-05-27T05:38:56;16.10;99.90
16966;DHT22;8599;47.852;12.070;2023-05-27T05:41:23;16.10;99.90
16966;DHT22;8599;47.852;12.070;2023-05-27T05:43:50;16.30;99.90
16966;DHT22;8599;47.852;12.070;2023-05-27T05:46:16;16.20;99.90
16966;DHT22;8599;47.852;12.070;2023-05-27T05:48:43;16.20;99.90
16966;DHT22;8599;47.852;12.070;2023-05-27T05:51:10;16.30;99.90
16966;DHT22;8599;47.852;12.070;2023-05-27T05:53:37;16.40;99.90
16966;DHT22;8599;47.852;12.070;2023-05-27T05:56:06;16.20;99.90
16966;DHT22;8599;47.852;12.070;2023-05-27T05:58:33;16.30;99.90
16966;DHT22;8599;47.852;12.070;2023-05-27T06:00:59;16.40;99.90
16966;DHT22;8599;47.852;12.070;2023-05-27T06:03:27;16.50;99.90
16966;DHT22;8599;47.852;12.070;2023-05-27T06:05:53;16.60;99.90
16966;DHT22;8599;47.852;12.070;2023-05-27T06:08:20;16.60;99.90
16966;DHT22;8599;47.852;12.070;2023-05-27T06:10:47;16.50;99.90
16966;DHT22;8599;47.852;12.070;2023-05-27T06:13:16;16.50;99.90
16966;DHT22;8599;47.852;12.070;2023-05-27T06:15:43;16.60;99.90
16966;DHT22;8599;47.852;12.070;2023-05-27T06:18:10;16.70;99.90
16966;DHT22;8599;47.852;12.070;2023-05-27T06:20:37;16.80;99.90
16966;DHT22;8599;47.852;12.070;2023-05-27T06:23:03;16.70;99.90
16966;DHT22;8599;47.852;12.070;2023-05-27T06:25:31;16.80;99.90
16966;DHT22;8599;47.852;12.070;2023-05-27T06:27:57;16.90;99.90
16966;DHT22;8599;47.852;12.070;2023-05-27T06:30:26;16.80;99.90
16966;DHT22;8599;47.852;12.070;2023-05-27T06:32:53;16.80;99.90
16966;DHT22;8599;47.852;12.070;2023-05-27T06:35:20;16.70;99.90
16966;DHT22;8599;47.852;12.070;2023-05-27T06:37:47;16.70;99.90
16966;DHT22;8599;47.852;12.070;2023-05-27T06:40:14;16.60;99.90
16966;DHT22;8599;47.852;12.070;2023-05-27T06:42:40;16.60;99.90
16966;DHT22;8599;47.852;12.070;2023-05-27T06:45:09;16.80;99.90
16966;DHT22;8599;47.852;12.070;2023-05-27T06:47:37;16.80;99.90
16966;DHT22;8599;47.852;12.070;2023-05-27T06:50:05;16.90;99.90
16966;DHT22;8599;47.852;12.070;2023-05-27T06:52:32;16.90;99.90
16966;DHT22;8599;47.852;12.070;2023-05-27T06:54:59;17.00;99.90
16966;DHT22;8599;47.852;12.070;2023-05-27T06:57:26;17.00;99.90
16966;DHT22;8599;47.852;12.070;2023-05-27T06:59:54;17.10;99.90
16966;DHT22;8599;47.852;12.070;2023-05-27T07:02:21;17.20;99.90
16966;DHT22;8599;47.852;12.070;2023-05-27T07:04:50;17.20;99.90
16966;DHT22;8599;47.852;12.070;2023-05-27T07:07:19;17.10;99.90
16966;DHT22;8599;47.852;12.070;2023-05-27T07:09:46;17.20;99.90
16966;DHT22;8599;47.852;12.070;2023-05-27T07:12:12;17.30;99.90
16966;DHT22;8599;47.852;12.070;2023-05-27T07:14:39;17.30;99.90
16966;DHT22;8599;47.852;12.070;2023-05-27T07:17:06;17.40;99.90
16966;DHT22;8599;47.852;12.070;2023-05-27T07:19:33;17.30;99.90
16966;DHT22;8599;47.852;12.070;2023-05-27T07:22:01;17.30;99.90
16966;DHT22;8599;47.852;12.070;2023-05-27T07:24:28;17.40;99.90
16966;DHT22;8599;47.852;12.070;2023-05-27T07:26:55;17.40;99.90
16966;DHT22;8599;47.852;12.070;2023-05-27T07:29:22;17.50;99.90
16966;DHT22;8599;47.852;12.070;2023-05-27T07:31:49;17.50;99.90
16966;DHT22;8599;47.852;12.070;2023-05-27T07:34:15;17.50;99.90
16966;DHT22;8599;47.852;12.070;2023-05-27T07:36:42;17.50;99.90
16966;DHT22;8599;47.852;12.070;2023-05-27T07:39:10;17.50;99.90
16966;DHT22;8599;47.852;12.070;2023-05-27T07:41:37;17.70;99.90
16966;DHT22;8599;47.852;12.070;2023-05-27T07:44:04;17.70;99.90
16966;DHT22;8599;47.852;12.070;2023-05-27T07:46:31;17.80;99.90
16966;DHT22;8599;47.852;12.070;2023-05-27T07:48:58;17.80;99.90
16966;DHT22;8599;47.852;12.070;2023-05-27T07:51:24;17.90;99.90
16966;DHT22;8599;47.852;12.070;2023-05-27T07:53:51;17.90;99.90
16966;DHT22;8599;47.852;12.070;2023-05-27T07:56:19;17.90;99.90
16966;DHT22;8599;47.852;12.070;2023-05-27T07:58:46;17.90;99.90
16966;DHT22;8599;47.852;12.070;2023-05-27T08:01:13;18.10;99.90
16966;DHT22;8599;47.852;12.070;2023-05-27T08:03:40;18.20;99.90
16966;DHT22;8599;47.852;12.070;2023-05-27T08:06:07;18.20;99.90
16966;DHT22;8599;47.852;12.070;2023-05-27T08:08:33;18.30;99.90
16966;DHT22;8599;47.852;12.070;2023-05-27T08:11:00;18.20;99.90
16966;DHT22;8599;47.852;12.070;2023-05-27T08:13:28;18.20;99.90
16966;DHT22;8599;47.852;12.070;2023-05-27T08:15:55;18.20;99.90
16966;DHT22;8599;47.852;12.070;2023-05-27T08:18:23;18.30;99.90
16966;DHT22;8599;47.852;12.070;2023-05-27T08:20:49;18.20;99.90
16966;DHT22;8599;47.852;12.070;2023-05-27T08:23:17;18.20;99.90
16966;DHT22;8599;47.852;12.070;2023-05-27T08:25:44;18.30;99.90
16966;DHT22;8599;47.852;12.070;2023-05-27T08:28:11;18.40;99.90
16966;DHT22;8599;47.852;12.070;2023-05-27T08:30:39;18.50;99.90
16966;DHT22;8599;47.852;12.070;2023-05-27T08:33:06;18.50;99.90
16966;DHT22;8599;47.852;12.070;2023-05-27T08:35:33;18.60;99.90
16966;DHT22;8599;47.852;12.070;2023-05-27T08:37:59;18.70;99.90
16966;DHT22;8599;47.852;12.070;2023-05-27T08:40:26;18.80;99.90
16966;DHT22;8599;47.852;12.070;2023-05-27T08:42:53;18.90;99.90
16966;DHT22;8599;47.852;12.070;2023-05-27T08:45:21;18.90;99.90
16966;DHT22;8599;47.852;12.070;2023-05-27T08:47:49;18.90;99.90
16966;DHT22;8599;47.852;12.070;2023-05-27T08:50:18;19.00;99.90
16966;DHT22;8599;47.852;12.070;2023-05-27T08:52:46;19.10;99.90
16966;DHT22;8599;47.852;12.070;2023-05-27T08:55:15;19.00;99.90
16966;DHT22;8599;47.852;12.070;2023-05-27T08:57:45;19.00;99.90
16966;DHT22;8599;47.852;12.070;2023-05-27T09:00:13;19.10;99.90
16966;DHT22;8599;47.852;12.070;2023-05-27T09:02:40;19.20;99.90
16966;DHT22;8599;47.852;12.070;2023-05-27T09:05:10;19.30;99.90
16966;DHT22;8599;47.852;12.070;2023-05-27T09:07:37;19.20;99.90
16966;DHT22;8599;47.852;12.070;2023-05-27T09:10:05;19.30;99.90
16966;DHT22;8599;47.852;12.070;2023-05-27T09:12:33;19.20;99.90
16966;DHT22;8599;47.852;12.070;2023-05-27T09:15:00;19.40;99.90
16966;DHT22;8599;47.852;12.070;2023-05-27T09:17:27;19.50;99.90
16966;DHT22;8599;47.852;12.070;2023-05-27T09:19:54;19.60;99.90
16966;DHT22;8599;47.852;12.070;2023-05-27T09:22:24;19.70;99.90
16966;DHT22;8599;47.852;12.070;2023-05-27T09:24:52;19.80;99.90
16966;DHT22;8599;47.852;12.070;2023-05-27T09:27:24;19.90;99.90
16966;DHT22;8599;47.852;12.070;2023-05-27T09:29:52;19.90;99.90
16966;DHT22;8599;47.852;12.070;2023-05-27T09:32:25;19.90;99.90
16966;DHT22;8599;47.852;12.070;2023-05-27T09:34:53;20.00;99.90
16966;DHT22;8599;47.852;12.070;2023-05-27T09:37:26;20.10;99.90
16966;DHT22;8599;47.852;12.070;2023-05-27T09:39:57;20.20;99.90
16966;DHT22;8599;47.852;12.070;2023-05-27T09:42:24;20.20;99.90
16966;DHT22;8599;47.852;12.070;2023-05-27T09:44:54;19.90;99.90
16966;DHT22;8599;47.852;12.070;2023-05-27T09:47:21;19.90;99.90
16966;DHT22;8599;47.852;12.070;2023-05-27T09:49:52;20.00;99.90
16966;DHT22;8599;47.852;12.070;2023-05-27T09:52:20;20.00;99.90
16966;DHT22;8599;47.852;12.070;2023-05-27T09:54:50;20.10;99.90
16966;DHT22;8599;47.852;12.070;2023-05-27T09:57:18;20.20;99.90
16966;DHT22;8599;47.852;12.070;2023-05-27T09:59:46;20.10;99.90
16966;DHT22;8599;47.852;12.070;2023-05-27T10:02:17;20.10;99.90
16966;DHT22;8599;47.852;12.070;2023-05-27T10:04:44;20.20;99.90
16966;DHT22;8599;47.852;12.070;2023-05-27T10:07:15;20.20;99.90
16966;DHT22;8599;47.852;12.070;2023-05-27T10:09:45;20.20;99.90
16966;DHT22;8599;47.852;12.070;2023-05-27T10:12:14;20.20;99.90
16966;DHT22;8599;47.852;12.070;2023-05-27T10:14:41;20.20;99.90
16966;DHT22;8599;47.852;12.070;2023-05-27T10:17:10;20.20;99.90
16966;DHT22;8599;47.852;12.070;2023-05-27T10:19:37;20.40;99.90
16966;DHT22;8599;47.852;12.070;2023-05-27T10:22:10;20.70;99.90
16966;DHT22;8599;47.852;12.070;2023-05-27T10:24:39;20.80;99.90
16966;DHT22;8599;47.852;12.070;2023-05-27T10:27:06;20.70;99.90
16966;DHT22;8599;47.852;12.070;2023-05-27T10:29:38;20.50;99.90
16966;DHT22;8599;47.852;12.070;2023-05-27T10:32:05;20.60;99.90
16966;DHT22;8599;47.852;12.070;2023-05-27T10:34:35;20.50;99.90
16966;DHT22;8599;47.852;12.070;2023-05-27T10:37:03;20.40;99.90
16966;DHT22;8599;47.852;12.070;2023-05-27T10:39:29;20.20;99.90
16966;DHT22;8599;47.852;12.070;2023-05-27T10:41:57;20.10;99.90
16966;DHT22;8599;47.852;12.070;2023-05-27T10:44:27;20.10;99.90
16966;DHT22;8599;47.852;12.070;2023-05-27T10:47:00;20.40;99.90
16966;DHT22;8599;47.852;12.070;2023-05-27T10:49:28;20.60;99.90
16966;DHT22;8599;47.852;12.070;2023-05-27T10:52:05;20.80;99.90
16966;DHT22;8599;47.852;12.070;2023-05-27T10:54:36;21.10;99.90
16966;DHT22;8599;47.852;12.070;2023-05-27T10:57:03;21.40;99.90
16966;DHT22;8599;47.852;12.070;2023-05-27T10:59:39;21.70;99.90
16966;DHT22;8599;47.852;12.070;2023-05-27T11:02:08;21.50;99.90
16966;DHT22;8599;47.852;12.070;2023-05-27T11:04:35;21.50;99.90
16966;DHT22;8599;47.852;12.070;2023-05-27T11:07:02;21.60;99.90
16966;DHT22;8599;47.852;12.070;2023-05-27T11:09:29;21.70;99.90
16966;DHT22;8599;47.852;12.070;2023-05-27T11:11:56;21.90;99.90
16966;DHT22;8599;47.852;12.070;2023-05-27T11:14:23;22.00;99.90
16966;DHT22;8599;47.852;12.070;2023-05-27T11:16:50;21.70;99.90
16966;DHT22;8599;47.852;12.070;2023-05-27T11:19:19;21.20;99.90
16966;DHT22;8599;47.852;12.070;2023-05-27T11:21:47;21.00;99.90
16966;DHT22;8599;47.852;12.070;2023-05-27T11:24:15;21.10;99.90
16966;DHT22;8599;47.852;12.070;2023-05-27T11:26:43;21.30;99.90
16966;DHT22;8599;47.852;12.070;2023-05-27T11:29:10;21.70;99.90
16966;DHT22;8599;47.852;12.070;2023-05-27T11:31:38;21.80;99.90
16966;DHT22;8599;47.852;12.070;2023-05-27T11:34:11;21.90;99.70
16966;DHT22;8599;47.852;12.070;2023-05-27T11:36:40;22.00;99.90
16966;DHT22;8599;47.852;12.070;2023-05-27T11:39:11;22.00;99.90
16966;DHT22;8599;47.852;12.070;2023-05-27T11:41:48;22.10;99.70
16966;DHT22;8599;47.852;12.070;2023-05-27T11:44:17;22.10;99.10
16966;DHT22;8599;47.852;12.070;2023-05-27T11:46:45;22.10;98.00
16966;DHT22;8599;47.852;12.070;2023-05-27T11:49:13;22.00;97.90
16966;DHT22;8599;47.852;12.070;2023-05-27T11:51:43;21.90;98.90
16966;DHT22;8599;47.852;12.070;2023-05-27T11:54:17;21.80;97.70
16966;DHT22;8599;47.852;12.070;2023-05-27T11:56:44;22.00;97.80
16966;DHT22;8599;47.852;12.070;2023-05-27T11:59:11;22.00;97.80
16966;DHT22;8599;47.852;12.070;2023-05-27T12:01:39;22.00;97.10
16966;DHT22;8599;47.852;12.070;2023-05-27T12:04:06;22.20;97.10
16966;DHT22;8599;47.852;12.070;2023-05-27T12:06:33;22.20;97.00
16966;DHT22;8599;47.852;12.070;2023-05-27T12:09:01;22.20;97.30
16966;DHT22;8599;47.852;12.070;2023-05-27T12:11:28;22.30;97.40
16966;DHT22;8599;47.852;12.070;2023-05-27T12:13:55;22.40;97.50
16966;DHT22;8599;47.852;12.070;2023-05-27T12:16:22;22.20;98.40
16966;DHT22;8599;47.852;12.070;2023-05-27T12:18:49;22.10;96.90
16966;DHT22;8599;47.852;12.070;2023-05-27T12:21:16;22.20;97.30
16966;DHT22;8599;47.852;12.070;2023-05-27T12:23:43;22.20;97.40
16966;DHT22;8599;47.852;12.070;2023-05-27T12:26:12;22.40;97.20
16966;DHT22;8599;47.852;12.070;2023-05-27T12:28:40;22.80;97.10
16966;DHT22;8599;47.852;12.070;2023-05-27T12:31:07;22.90;96.60
16966;DHT22;8599;47.852;12.070;2023-05-27T12:33:34;23.20;95.80
16966;DHT22;8599;47.852;12.070;2023-05-27T12:36:02;23.30;95.10
16966;DHT22;8599;47.852;12.070;2023-05-27T12:38:31;23.40;95.30
16966;DHT22;8599;47.852;12.070;2023-05-27T12:40:58;23.70;94.20
16966;DHT22;8599;47.852;12.070;2023-05-27T12:43:26;23.40;94.00
16966;DHT22;8599;47.852;12.070;2023-05-27T12:45:52;23.30;94.90
16966;DHT22;8599;47.852;12.070;2023-05-27T12:48:20;23.20;94.40
16966;DHT22;8599;47.852;12.070;2023-05-27T12:50:47;23.50;95.10
16966;DHT22;8599;47.852;12.070;2023-05-27T12:53:14;23.60;94.90
16966;DHT22;8599;47.852;12.070;2023-05-27T12:55:42;23.40;94.50
16966;DHT22;8599;47.852;12.070;2023-05-27T12:58:10;23.30;95.30
16966;DHT22;8599;47.852;12.070;2023-05-27T13:00:38;23.10;95.20
16966;DHT22;8599;47.852;12.070;2023-05-27T13:03:05;23.50;95.60
16966;DHT22;8599;47.852;12.070;2023-05-27T13:05:32;23.90;95.50
16966;DHT22;8599;47.852;12.070;2023-05-27T13:08:00;24.00;95.00
16966;DHT22;8599;47.852;12.070;2023-05-27T13:10:27;24.10;95.10
16966;DHT22;8599;47.852;12.070;2023-05-27T13:12:55;24.20;93.40
16966;DHT22;8599;47.852;12.070;2023-05-27T13:15:23;24.20;93.40
16966;DHT22;8599;47.852;12.070;2023-05-27T13:17:52;24.00;92.90
16966;DHT22;8599;47.852;12.070;2023-05-27T13:20:21;24.30;93.70
16966;DHT22;8599;47.852;12.070;2023-05-27T13:22:48;24.50;93.10
16966;DHT22;8599;47.852;12.070;2023-05-27T13:25:15;24.00;93.20
16966;DHT22;8599;47.852;12.070;2023-05-27T13:27:43;24.20;94.80
16966;DHT22;8599;47.852;12.070;2023-05-27T13:30:12;24.00;93.10
16966;DHT22;8599;47.852;12.070;2023-05-27T13:32:40;24.00;93.10
16966;DHT22;8599;47.852;12.070;2023-05-27T13:35:09;23.90;93.30
16966;DHT22;8599;47.852;12.070;2023-05-27T13:37:37;23.90;93.90
16966;DHT22;8599;47.852;12.070;2023-05-27T13:40:05;23.70;93.50
16966;DHT22;8599;47.852;12.070;2023-05-27T13:42:32;23.70;94.40
16966;DHT22;8599;47.852;12.070;2023-05-27T13:44:59;24.10;93.60
16966;DHT22;8599;47.852;12.070;2023-05-27T13:47:26;24.70;93.10
16966;DHT22;8599;47.852;12.070;2023-05-27T13:49:53;24.40;92.60
16966;DHT22;8599;47.852;12.070;2023-05-27T13:52:21;24.70;92.10
16966;DHT22;8599;47.852;12.070;2023-05-27T13:54:48;24.80;92.70
16966;DHT22;8599;47.852;12.070;2023-05-27T13:57:15;25.20;91.80
16966;DHT22;8599;47.852;12.070;2023-05-27T13:59:41;25.00;92.10
16966;DHT22;8599;47.852;12.070;2023-05-27T14:02:08;24.60;92.30
16966;DHT22;8599;47.852;12.070;2023-05-27T14:04:35;24.10;92.20
16966;DHT22;8599;47.852;12.070;2023-05-27T14:07:02;24.20;92.60
16966;DHT22;8599;47.852;12.070;2023-05-27T14:09:30;24.20;92.70
16966;DHT22;8599;47.852;12.070;2023-05-27T14:11:57;24.10;91.80
16966;DHT22;8599;47.852;12.070;2023-05-27T14:14:24;24.40;91.80
16966;DHT22;8599;47.852;12.070;2023-05-27T14:16:50;24.40;91.20
16966;DHT22;8599;47.852;12.070;2023-05-27T14:19:17;24.40;91.20
16966;DHT22;8599;47.852;12.070;2023-05-27T14:21:44;24.50;91.70
16966;DHT22;8599;47.852;12.070;2023-05-27T14:24:11;24.60;92.00
16966;DHT22;8599;47.852;12.070;2023-05-27T14:26:40;24.70;91.20
16966;DHT22;8599;47.852;12.070;2023-05-27T14:29:09;24.80;91.60
16966;DHT22;8599;47.852;12.070;2023-05-27T14:31:36;24.90;90.60
16966;DHT22;8599;47.852;12.070;2023-05-27T14:34:02;24.50;90.80
16966;DHT22;8599;47.852;12.070;2023-05-27T14:36:29;24.70;91.30
16966;DHT22;8599;47.852;12.070;2023-05-27T14:38:56;24.70;91.10
16966;DHT22;8599;47.852;12.070;2023-05-27T14:41:23;25.10;91.30
16966;DHT22;8599;47.852;12.070;2023-05-27T14:43:52;25.10;89.80
16966;DHT22;8599;47.852;12.070;2023-05-27T14:46:18;25.20;90.00
16966;DHT22;8599;47.852;12.070;2023-05-27T14:48:45;25.30;90.00
16966;DHT22;8599;47.852;12.070;2023-05-27T14:51:12;25.40;90.60
16966;DHT22;8599;47.852;12.070;2023-05-27T14:53:39;25.90;88.90
16966;DHT22;8599;47.852;12.070;2023-05-27T14:56:06;25.30;88.80
16966;DHT22;8599;47.852;12.070;2023-05-27T14:58:32;25.20;89.30
16966;DHT22;8599;47.852;12.070;2023-05-27T15:01:00;25.20;89.80
16966;DHT22;8599;47.852;12.070;2023-05-27T15:03:27;25.40;89.70
16966;DHT22;8599;47.852;12.070;2023-05-27T15:05:55;25.30;90.50
16966;DHT22;8599;47.852;12.070;2023-05-27T15:08:23;25.10;88.90
16966;DHT22;8599;47.852;12.070;2023-05-27T15:10:50;24.60;89.80
16966;DHT22;8599;47.852;12.070;2023-05-27T15:13:17;24.30;90.20
16966;DHT22;8599;47.852;12.070;2023-05-27T15:15:45;23.80;90.30
16966;DHT22;8599;47.852;12.070;2023-05-27T15:18:13;23.70;91.00
16966;DHT22;8599;47.852;12.070;2023-05-27T15:20:39;23.80;91.90
16966;DHT22;8599;47.852;12.070;2023-05-27T15:23:06;23.90;91.60
16966;DHT22;8599;47.852;12.070;2023-05-27T15:25:33;23.40;91.30
16966;DHT22;8599;47.852;12.070;2023-05-27T15:28:00;23.00;91.60
16966;DHT22;8599;47.852;12.070;2023-05-27T15:30:27;22.80;92.60
16966;DHT22;8599;47.852;12.070;2023-05-27T15:32:54;22.70;93.30